createdAt,value
2018-11-05T00:01:33.597Z,98.8
2018-11-05T00:06:36.220Z,98.9
2018-11-05T00:11:38.503Z,98.9
2018-11-05T00:16:40.927Z,98.8
2018-11-05T00:21:43.374Z,98.7
2018-11-05T00:26:45.801Z,98.7
2018-11-05T00:31:48.244Z,98.8
2018-11-05T00:36:50.677Z,98.7
2018-11-05T00:41:53.125Z,98.7
2018-11-05T00:46:55.559Z,98.8
2018-11-05T00:51:58.003Z,98.8
2018-11-05T00:57:00.475Z,98.8
2018-11-05T01:02:02.901Z,98.9
2018-11-05T01:07:05.335Z,99
2018-11-05T01:12:07.799Z,99.1
2018-11-05T01:17:10.238Z,99
2018-11-05T01:22:12.664Z,99.1
2018-11-05T01:27:15.128Z,99
2018-11-05T01:32:17.540Z,98.9
2018-11-05T01:37:20.099Z,98.8
2018-11-05T01:42:22.413Z,98.8
2018-11-05T01:47:24.881Z,99
2018-11-05T01:52:27.323Z,99.1
2018-11-05T01:57:29.753Z,99.5
2018-11-05T02:02:32.184Z,99.7
2018-11-05T02:07:34.611Z,99.8
2018-11-05T02:12:37.069Z,99.6
2018-11-05T02:17:39.500Z,99.4
2018-11-05T02:22:41.940Z,99.3
2018-11-05T02:27:44.375Z,99.2
2018-11-05T02:32:46.894Z,99.2
2018-11-05T02:37:49.255Z,99.4
2018-11-05T02:42:51.968Z,99.4
2018-11-05T02:47:54.147Z,99.3
2018-11-05T02:52:56.603Z,99.2
2018-11-05T02:57:59.009Z,99.1
2018-11-05T03:03:01.526Z,99.1
2018-11-05T03:08:03.894Z,99
2018-11-05T03:13:06.338Z,99
2018-11-05T03:18:08.844Z,98.9
2018-11-05T03:23:11.264Z,98.9
2018-11-05T03:28:13.692Z,98.9
2018-11-05T03:33:16.088Z,98.9
2018-11-05T03:38:18.562Z,99.1
2018-11-05T03:43:20.982Z,98.9
2018-11-05T03:48:23.430Z,98.9
2018-11-05T03:53:25.883Z,99.1
2018-11-05T03:58:28.301Z,99
2018-11-05T04:03:30.858Z,98.9
2018-11-05T04:08:33.188Z,98.9
2018-11-05T04:13:35.614Z,99
2018-11-05T04:18:38.060Z,98.9
2018-11-05T04:23:40.511Z,98.8
2018-11-05T04:28:42.928Z,98.5
2018-11-05T04:33:45.367Z,98.4
2018-11-05T04:38:47.841Z,98.3
2018-11-05T04:48:52.697Z,98.3
2018-11-05T04:53:55.142Z,98.3
2018-11-05T04:58:57.573Z,98.2
2018-11-05T05:09:07.480Z,97.9
2018-11-05T05:14:04.961Z,97.7
2018-11-05T05:19:07.473Z,97.8
2018-11-05T05:24:09.873Z,98.3
2018-11-05T05:29:12.216Z,98.3
2018-11-05T05:34:14.728Z,98.4
2018-11-05T05:44:19.526Z,98
2018-11-05T05:49:22.073Z,98
2018-11-05T05:54:29.487Z,98
2018-11-05T05:59:26.884Z,98
2018-11-05T06:04:29.363Z,98
2018-11-05T06:09:31.736Z,98.3
2018-11-05T06:14:34.204Z,98.3
2018-11-05T06:19:36.624Z,98.3
2018-11-05T06:24:39.050Z,98.4
2018-11-05T06:29:41.509Z,98.8
2018-11-05T06:34:43.938Z,99.1
2018-11-05T06:39:46.388Z,99
2018-11-05T06:44:48.871Z,99
2018-11-05T06:49:51.253Z,98.8
2018-11-05T06:54:53.696Z,98.7
2018-11-05T06:59:56.148Z,98.7
2018-11-05T07:04:58.726Z,98.7
2018-11-05T07:10:01.199Z,98.8
2018-11-05T07:15:03.458Z,99
2018-11-05T07:20:06.000Z,99
2018-11-05T07:25:08.386Z,99
2018-11-05T07:30:10.794Z,98.8
2018-11-05T07:35:13.219Z,98.6
2018-11-05T07:40:15.658Z,98.4
2018-11-05T07:45:18.138Z,97.7
2018-11-05T07:50:20.673Z,97.6
2018-11-05T07:55:23.020Z,97.6
2018-11-05T08:00:25.441Z,97.5
2018-11-05T08:05:27.875Z,97.4
2018-11-05T08:10:30.300Z,97.3
2018-11-05T08:15:32.781Z,97.2
2018-11-05T08:20:35.240Z,97.1
2018-11-05T08:25:37.630Z,96.9
2018-11-05T08:30:40.074Z,96.4
2018-11-05T08:35:42.599Z,96.1
2018-11-05T08:40:44.994Z,95.5
2018-11-05T08:45:47.391Z,94.9
2018-11-05T08:50:49.991Z,94.5
2018-11-05T08:55:52.270Z,94.7
2018-11-05T09:00:54.748Z,94.4
2018-11-05T09:05:57.181Z,92.8
2018-11-05T09:10:59.943Z,91.5
2018-11-05T09:16:02.188Z,90.4
2018-11-05T09:21:04.466Z,89.9
2018-11-05T09:26:06.984Z,88.7
2018-11-05T09:31:09.347Z,89.1
2018-11-05T09:36:11.794Z,87.4
2018-11-05T09:41:14.239Z,86
2018-11-05T09:46:16.676Z,86.1
2018-11-05T09:51:19.113Z,84.4
2018-11-05T09:56:21.586Z,84.5
2018-11-05T10:01:23.998Z,84.2
2018-11-05T10:06:26.423Z,84.1
2018-11-05T10:11:28.869Z,82
2018-11-05T10:16:31.310Z,82.2
2018-11-05T10:21:33.769Z,80
2018-11-05T10:26:36.198Z,76.5
2018-11-05T10:31:38.647Z,76.6
2018-11-05T10:36:41.069Z,74.4
2018-11-05T10:41:43.549Z,71.5
2018-11-05T10:46:45.959Z,72.6
2018-11-05T10:51:48.470Z,71
2018-11-05T10:56:50.899Z,68.9
2018-11-05T11:01:53.273Z,68.7
2018-11-05T11:06:55.723Z,66.6
2018-11-05T11:11:58.165Z,64.5
2018-11-05T11:17:00.611Z,63.7
2018-11-05T11:22:03.157Z,58.8
2018-11-05T11:27:05.486Z,56.6
2018-11-05T11:32:07.919Z,54.5
2018-11-05T11:37:10.436Z,54.1
2018-11-05T11:42:12.912Z,55.1
2018-11-05T11:47:15.357Z,55.1
2018-11-05T11:52:17.727Z,56.2
2018-11-05T11:57:20.128Z,57.1
2018-11-05T12:02:22.561Z,57
2018-11-05T12:07:24.999Z,57.1
2018-11-05T12:12:27.440Z,57.6
2018-11-05T12:17:29.910Z,57.7
2018-11-05T12:22:32.326Z,57.3
2018-11-05T12:27:34.764Z,57.7
2018-11-05T12:32:37.203Z,58.8
2018-11-05T12:37:39.639Z,59.8
2018-11-05T12:42:42.094Z,60.4
2018-11-05T12:47:44.573Z,60.9
2018-11-05T12:52:46.977Z,62
2018-11-05T12:57:49.403Z,62.5
2018-11-05T13:02:51.854Z,60.6
2018-11-05T13:07:54.289Z,60.2
2018-11-05T13:12:56.758Z,60
2018-11-05T13:17:59.177Z,60.5
2018-11-05T13:23:01.639Z,61.7
2018-11-05T13:28:04.101Z,62.6
2018-11-05T13:33:06.514Z,63.4
2018-11-05T13:43:11.383Z,65.1
2018-11-05T13:48:14.218Z,65.8
2018-11-05T13:53:16.253Z,66.2
2018-11-05T13:58:18.716Z,66.7
2018-11-05T14:03:21.126Z,67.1
2018-11-05T14:08:23.574Z,67.3
2018-11-05T14:13:26.165Z,67.4
2018-11-05T14:18:28.511Z,67.7
2018-11-05T14:23:30.893Z,68
2018-11-05T14:28:33.837Z,68.4
2018-11-05T14:33:35.769Z,69
2018-11-05T14:38:38.240Z,69.6
2018-11-05T14:43:40.706Z,70.1
2018-11-05T14:48:43.144Z,70.7
2018-11-05T14:53:45.536Z,71.1
2018-11-05T14:58:47.992Z,71.6
2018-11-05T15:03:50.412Z,72.2
2018-11-05T15:08:52.849Z,72.9
2018-11-05T15:13:55.302Z,73.6
2018-11-05T15:18:58.060Z,73.9
2018-11-05T15:24:00.168Z,74.2
2018-11-05T15:29:02.635Z,74.5
2018-11-05T15:34:05.090Z,74.7
2018-11-05T15:39:07.524Z,75.1
2018-11-05T15:44:09.965Z,75.5
2018-11-05T15:49:12.379Z,76
2018-11-05T15:54:14.965Z,76.7
2018-11-05T15:59:17.277Z,77.2
2018-11-05T16:04:19.743Z,77.6
2018-11-05T16:09:22.363Z,78.3
2018-11-05T16:14:24.597Z,79
2018-11-05T16:19:27.018Z,79.1
2018-11-05T16:24:29.576Z,79.6
2018-11-05T16:29:31.914Z,80.5
2018-11-05T16:34:34.416Z,80.4
2018-11-05T16:39:36.929Z,80.6
2018-11-05T16:44:39.237Z,80.7
2018-11-05T16:49:41.661Z,81
2018-11-05T16:54:44.174Z,81.6
2018-11-05T16:59:46.555Z,81.9
2018-11-05T17:04:48.999Z,82.1
2018-11-05T17:09:51.419Z,82.9
2018-11-05T17:14:53.863Z,83.1
2018-11-05T17:19:56.299Z,82.9
2018-11-05T17:24:58.739Z,82.4
2018-11-05T17:30:01.224Z,82.7
2018-11-05T17:35:03.624Z,82.9
2018-11-05T17:40:06.111Z,83.1
2018-11-05T17:45:08.516Z,83.2
2018-11-05T17:50:10.942Z,83.3
2018-11-05T17:55:13.399Z,83.1
2018-11-05T18:00:15.887Z,83
2018-11-05T18:05:18.259Z,82.9
2018-11-05T18:10:20.696Z,82.9
2018-11-05T18:15:23.160Z,83.1
2018-11-05T18:20:25.603Z,83.3
2018-11-05T18:25:28.037Z,83.4
2018-11-05T18:30:30.458Z,83.3
2018-11-05T18:35:32.928Z,83.7
2018-11-05T18:40:35.340Z,83.7
2018-11-05T18:45:37.973Z,83.5
2018-11-05T18:50:40.240Z,83.4
2018-11-05T18:55:42.662Z,83.6
2018-11-05T19:00:45.112Z,83.7
2018-11-05T19:05:47.540Z,83.6
2018-11-05T19:10:49.985Z,83.6
2018-11-05T19:15:52.507Z,83.6
2018-11-05T19:20:54.870Z,83.6
2018-11-05T19:25:57.301Z,83.7
2018-11-05T19:30:59.747Z,84.1
2018-11-05T19:36:02.278Z,84.4
2018-11-05T19:41:04.635Z,84.7
2018-11-05T19:46:07.079Z,85.1
2018-11-05T19:51:09.517Z,85
2018-11-05T19:56:12.086Z,85.3
2018-11-05T20:01:14.414Z,85.9
2018-11-05T20:06:16.981Z,86.4
2018-11-05T20:11:19.298Z,86.5
2018-11-05T20:16:21.727Z,86.2
2018-11-05T20:21:24.144Z,85.9
2018-11-05T20:26:26.594Z,85.5
2018-11-05T20:31:29.278Z,85
2018-11-05T20:36:31.470Z,84.3
2018-11-05T20:41:33.909Z,83.7
2018-11-05T20:46:36.385Z,83.2
2018-11-05T20:51:38.778Z,83.1
2018-11-05T20:56:41.254Z,82.8
2018-11-05T21:01:43.681Z,82.5
2018-11-05T21:06:46.159Z,82.3
2018-11-05T21:11:48.546Z,82.3
2018-11-05T21:16:51.054Z,82.3
2018-11-05T21:21:53.723Z,82.5
2018-11-05T21:26:56.010Z,82.6
2018-11-05T21:31:58.303Z,82.9
2018-11-05T21:37:00.748Z,83.2
2018-11-05T21:42:03.182Z,83.4
2018-11-05T21:47:05.857Z,83.7
2018-11-05T21:52:08.057Z,83.6
2018-11-05T21:57:10.507Z,83.8
2018-11-05T22:02:13.019Z,84.1
2018-11-05T22:07:15.448Z,84.6
2018-11-05T22:12:17.836Z,84.8
2018-11-05T22:17:20.298Z,85.2
2018-11-05T22:22:22.729Z,85.5
2018-11-05T22:27:25.267Z,85.9
2018-11-05T22:32:27.593Z,86.4
2018-11-05T22:37:30.043Z,0
2018-11-05T22:42:32.461Z,86.9
2018-11-05T22:47:34.904Z,87.5
2018-11-05T22:52:37.345Z,87.8
2018-11-05T22:57:39.794Z,88.3
2018-11-05T23:02:42.230Z,88.6
2018-11-05T23:07:44.671Z,89
2018-11-05T23:12:47.110Z,90.2
2018-11-05T23:17:49.584Z,90.4
2018-11-05T23:22:51.992Z,90.7
2018-11-05T23:27:54.427Z,90.7
2018-11-05T23:32:56.875Z,91
2018-11-05T23:37:59.336Z,91.2
2018-11-05T23:43:01.765Z,91.3
2018-11-05T23:48:04.203Z,91.5
2018-11-05T23:53:06.632Z,91.8
2018-11-05T23:58:09.076Z,92.1
